createdAt,value
2018-07-15T00:00:10.200Z,21.89
2018-07-15T00:02:11.278Z,21.74
2018-07-15T00:02:51.660Z,21.81
2018-07-15T00:03:32.063Z,21.81
2018-07-15T00:04:12.447Z,21.7
2018-07-15T00:04:52.867Z,21.79
2018-07-15T00:05:33.260Z,21.63
2018-07-15T00:06:13.716Z,21.66
2018-07-15T00:06:54.124Z,21.64
2018-07-15T00:07:34.562Z,21.63
2018-07-15T00:08:14.983Z,21.61
2018-07-15T00:08:55.391Z,21.64
2018-07-15T00:10:44.106Z,21.63
2018-07-15T00:11:36.242Z,21.59
2018-07-15T00:12:12.912Z,21.63
2018-07-15T00:12:53.329Z,21.59
2018-07-15T00:13:33.754Z,21.68
2018-07-15T00:14:14.163Z,21.56
2018-07-15T00:14:54.589Z,21.61
2018-07-15T00:15:34.981Z,21.53
2018-07-15T00:16:15.400Z,21.52
2018-07-15T00:18:33.067Z,21.58
2018-07-15T00:19:13.208Z,21.49
2018-07-15T00:21:11.633Z,21.55
2018-07-15T00:21:51.630Z,21.53
2018-07-15T00:22:32.026Z,21.55
2018-07-15T00:23:12.437Z,21.48
2018-07-15T00:23:52.855Z,21.43
2018-07-15T00:24:33.323Z,21.52
2018-07-15T00:25:13.713Z,21.51
2018-07-15T00:25:54.141Z,21.48
2018-07-15T00:26:34.558Z,21.49
2018-07-15T00:27:14.961Z,21.43
2018-07-15T00:27:55.378Z,21.38
2018-07-15T00:28:35.797Z,21.36
2018-07-15T00:29:16.214Z,21.36
2018-07-15T00:29:56.671Z,21.42
2018-07-15T00:32:09.705Z,21.33
2018-07-15T00:32:50.185Z,21.3
2018-07-15T00:33:30.594Z,21.31
2018-07-15T00:34:11.032Z,21.24
2018-07-15T00:34:51.439Z,21.34
2018-07-15T00:35:31.848Z,21.34
2018-07-15T00:36:12.264Z,21.3
2018-07-15T00:36:52.670Z,21.31
2018-07-15T00:37:33.090Z,21.3
2018-07-15T00:38:13.472Z,21.27
2018-07-15T00:38:53.871Z,21.3
2018-07-15T00:39:34.266Z,21.31
2018-07-15T00:40:14.719Z,21.27
2018-07-15T00:40:55.115Z,21.26
2018-07-15T00:42:53.044Z,21.22
2018-07-15T00:43:34.187Z,21.26
2018-07-15T00:44:14.625Z,21.21
2018-07-15T00:44:54.999Z,21.15
2018-07-15T00:45:35.398Z,21.11
2018-07-15T00:47:35.690Z,21.15
2018-07-15T00:48:13.831Z,21.01
2018-07-15T00:48:54.210Z,21.11
2018-07-15T00:49:34.626Z,21.05
2018-07-15T00:51:33.661Z,21.01
2018-07-15T00:52:13.622Z,20.96
2018-07-15T00:52:54.039Z,20.98
2018-07-15T00:53:34.438Z,20.93
2018-07-15T00:54:14.854Z,20.96
2018-07-15T00:54:55.233Z,20.98
2018-07-15T00:55:35.622Z,20.91
2018-07-15T00:56:16.076Z,20.91
2018-07-15T00:56:56.494Z,20.85
2018-07-15T00:57:36.969Z,20.9
2018-07-15T00:58:17.449Z,20.83
2018-07-15T00:58:57.735Z,20.79
2018-07-15T00:59:38.119Z,20.87
2018-07-15T01:00:18.536Z,20.76
2018-07-15T01:00:58.962Z,20.78
2018-07-15T01:01:39.366Z,20.79
2018-07-15T01:02:19.791Z,20.79
2018-07-15T01:03:00.188Z,20.75
2018-07-15T01:03:40.647Z,20.71
2018-07-15T01:04:21.004Z,20.66
2018-07-15T01:05:01.412Z,20.64
2018-07-15T01:05:41.836Z,20.71
2018-07-15T01:06:22.221Z,20.71
2018-07-15T01:08:00.261Z,20.71
2018-07-15T01:08:41.381Z,20.63
2018-07-15T01:09:21.792Z,20.78
2018-07-15T01:10:02.248Z,20.71
2018-07-15T01:10:42.625Z,20.71
2018-07-15T01:11:23.002Z,20.64
2018-07-15T01:12:03.412Z,20.69
2018-07-15T01:12:43.845Z,20.61
2018-07-15T01:13:24.238Z,20.58
2018-07-15T01:14:04.650Z,20.63
2018-07-15T01:14:45.079Z,20.5
2018-07-15T01:15:25.475Z,20.46
2018-07-15T01:16:05.935Z,20.54
2018-07-15T01:16:46.300Z,20.48
2018-07-15T01:17:26.716Z,20.48
2018-07-15T01:18:07.125Z,20.44
2018-07-15T01:18:47.585Z,20.41
2018-07-15T01:19:27.997Z,20.42
2018-07-15T01:20:08.362Z,20.42
2018-07-15T01:20:48.772Z,20.41
2018-07-15T01:21:29.195Z,20.41
2018-07-15T01:22:09.607Z,20.38
2018-07-15T01:22:50.004Z,20.3
2018-07-15T01:23:30.439Z,20.3
2018-07-15T01:24:10.861Z,20.34
2018-07-15T01:24:51.269Z,20.3
2018-07-15T01:25:31.712Z,20.34
2018-07-15T01:26:12.112Z,20.34
2018-07-15T01:26:52.525Z,20.37
2018-07-15T01:27:32.935Z,20.35
2018-07-15T01:28:13.299Z,20.31
2018-07-15T01:30:08.840Z,20.31
2018-07-15T01:30:54.769Z,20.17
2018-07-15T01:31:33.105Z,20.2
2018-07-15T01:32:13.503Z,20.16
2018-07-15T01:32:54.006Z,20.1
2018-07-15T01:33:34.347Z,20.19
2018-07-15T01:34:14.766Z,20.15
2018-07-15T01:34:55.139Z,20.1
2018-07-15T01:35:35.580Z,20.1
2018-07-15T01:36:16.032Z,20.05
2018-07-15T01:36:56.474Z,20.02
2018-07-15T01:37:36.813Z,20.02
2018-07-15T01:38:17.263Z,19.98
2018-07-15T01:38:57.651Z,19.95
2018-07-15T01:39:38.062Z,19.94
2018-07-15T01:40:18.468Z,19.98
2018-07-15T01:40:58.856Z,19.87
2018-07-15T01:41:39.296Z,19.92
2018-07-15T01:42:19.684Z,19.86
2018-07-15T01:43:00.096Z,19.97
2018-07-15T01:43:40.499Z,19.95
2018-07-15T01:44:20.941Z,19.92
2018-07-15T01:45:01.339Z,19.97
2018-07-15T01:45:41.725Z,19.86
2018-07-15T01:46:22.130Z,19.83
2018-07-15T01:47:02.599Z,19.85
2018-07-15T01:47:42.940Z,19.78
2018-07-15T01:48:23.369Z,19.79
2018-07-15T01:49:03.792Z,19.75
2018-07-15T01:49:44.223Z,19.78
2018-07-15T01:50:24.646Z,19.76
2018-07-15T01:51:05.106Z,19.76
2018-07-15T01:51:45.471Z,19.85
2018-07-15T01:52:25.870Z,19.71
2018-07-15T01:53:06.314Z,19.71
2018-07-15T01:53:46.734Z,19.67
2018-07-15T01:54:27.126Z,19.75
2018-07-15T01:55:07.553Z,19.72
2018-07-15T01:55:47.934Z,19.72
2018-07-15T01:56:28.315Z,19.71
2018-07-15T01:57:08.709Z,19.75
2018-07-15T01:57:49.108Z,19.68
2018-07-15T01:58:29.608Z,19.6
2018-07-15T01:59:09.984Z,19.71
2018-07-15T01:59:50.393Z,19.68
2018-07-15T02:00:30.815Z,19.72
2018-07-15T02:01:11.253Z,19.68
2018-07-15T02:01:51.675Z,19.64
2018-07-15T02:02:32.080Z,19.71
2018-07-15T02:03:12.498Z,19.61
2018-07-15T02:03:52.910Z,19.61
2018-07-15T02:04:33.322Z,19.62
2018-07-15T02:05:13.712Z,19.61
2018-07-15T02:07:12.953Z,19.53
2018-07-15T02:07:55.544Z,19.52
2018-07-15T02:08:35.887Z,19.43
2018-07-15T02:10:35.384Z,19.4
2018-07-15T02:11:16.542Z,19.32
2018-07-15T02:11:56.927Z,19.25
2018-07-15T02:12:37.333Z,19.3
2018-07-15T02:13:17.756Z,19.28
2018-07-15T02:13:58.141Z,19.15
2018-07-15T02:14:38.526Z,19.13
2018-07-15T02:15:18.953Z,19.07
2018-07-15T02:15:59.351Z,19.05
2018-07-15T02:16:39.757Z,19.13
2018-07-15T02:17:20.179Z,19.05
2018-07-15T02:18:00.569Z,19.06
2018-07-15T02:18:40.992Z,18.97
2018-07-15T02:19:21.422Z,19.1
2018-07-15T02:20:01.820Z,18.97
2018-07-15T02:20:42.265Z,19.05
2018-07-15T02:21:22.665Z,19.05
2018-07-15T02:22:03.016Z,18.97
2018-07-15T02:22:43.450Z,18.93
2018-07-15T02:23:23.857Z,18.87
2018-07-15T02:24:04.258Z,18.9
2018-07-15T02:24:44.672Z,18.89
2018-07-15T02:25:25.105Z,18.89
2018-07-15T02:26:05.506Z,18.82
2018-07-15T02:26:45.923Z,18.83
2018-07-15T02:27:26.325Z,18.83
2018-07-15T02:28:06.726Z,18.89
2018-07-15T02:28:47.113Z,18.87
2018-07-15T02:29:27.511Z,18.89
2018-07-15T02:30:07.948Z,18.84
2018-07-15T02:30:48.381Z,18.82
2018-07-15T02:31:28.761Z,18.69
2018-07-15T02:32:09.173Z,18.72
2018-07-15T02:34:01.286Z,18.79
2018-07-15T02:35:50.891Z,18.83
2018-07-15T02:36:33.111Z,18.75
2018-07-15T02:37:13.507Z,18.83
2018-07-15T02:37:53.931Z,18.75
2018-07-15T02:38:34.338Z,18.71
2018-07-15T02:39:14.745Z,18.72
2018-07-15T02:39:55.160Z,18.69
2018-07-15T02:40:35.563Z,18.68
2018-07-15T02:41:15.970Z,18.71
2018-07-15T02:43:36.259Z,18.66
2018-07-15T02:45:11.709Z,18.64
2018-07-15T02:47:03.604Z,18.56
2018-07-15T02:47:42.982Z,18.51
2018-07-15T02:48:23.312Z,18.47
2018-07-15T02:49:03.713Z,18.49
2018-07-15T02:49:44.127Z,18.42
2018-07-15T02:50:24.557Z,18.39
2018-07-15T02:51:04.981Z,18.39
2018-07-15T02:51:45.442Z,18.35
2018-07-15T02:52:25.805Z,18.36
2018-07-15T02:53:06.220Z,18.38
2018-07-15T02:53:46.687Z,18.32
2018-07-15T02:54:27.010Z,18.5
2018-07-15T02:55:07.413Z,18.26
2018-07-15T02:55:47.814Z,18.35
2018-07-15T02:56:28.237Z,18.35
2018-07-15T02:57:08.681Z,18.31
2018-07-15T02:57:49.092Z,18.21
2018-07-15T02:58:29.445Z,18.31
2018-07-15T02:59:09.863Z,18.34
2018-07-15T02:59:50.299Z,18.29
2018-07-15T03:00:30.719Z,18.32
2018-07-15T03:01:11.180Z,18.26
2018-07-15T03:01:51.544Z,18.31
2018-07-15T03:02:31.964Z,18.34
2018-07-15T03:03:12.362Z,18.28
2018-07-15T03:03:52.761Z,18.31
2018-07-15T03:04:33.192Z,18.34
2018-07-15T03:05:13.581Z,18.28
2018-07-15T03:05:54.004Z,18.31
2018-07-15T03:06:34.448Z,18.31
2018-07-15T03:07:14.823Z,18.26
2018-07-15T03:07:55.235Z,18.28
2018-07-15T03:08:35.620Z,18.28
2018-07-15T03:09:16.031Z,18.34
2018-07-15T03:09:56.478Z,18.29
2018-07-15T03:10:36.922Z,18.31
2018-07-15T03:11:17.302Z,18.2
2018-07-15T03:11:57.746Z,18.25
2018-07-15T03:12:38.103Z,18.16
2018-07-15T03:14:19.077Z,18.1
2018-07-15T03:15:05.089Z,18.07
2018-07-15T03:15:46.673Z,18.07
2018-07-15T03:16:27.122Z,18.07
2018-07-15T03:17:07.544Z,18.04
2018-07-15T03:17:47.923Z,18.05
2018-07-15T03:18:28.295Z,18.05
2018-07-15T03:19:08.760Z,18.04
2018-07-15T03:19:49.157Z,17.96
2018-07-15T03:20:29.518Z,17.95
2018-07-15T03:21:09.983Z,17.95
2018-07-15T03:21:50.349Z,17.92
2018-07-15T03:22:30.751Z,17.94
2018-07-15T03:23:11.164Z,17.91
2018-07-15T03:23:51.552Z,17.81
2018-07-15T03:24:32.023Z,17.81
2018-07-15T03:25:12.443Z,17.94
2018-07-15T03:25:52.809Z,17.86
2018-07-15T03:26:33.210Z,17.81
2018-07-15T03:27:13.653Z,17.84
2018-07-15T03:27:54.004Z,17.79
2018-07-15T03:28:34.439Z,17.73
2018-07-15T03:29:14.823Z,17.79
2018-07-15T03:29:55.236Z,17.84
2018-07-15T03:30:35.664Z,17.83
2018-07-15T03:31:16.030Z,17.8
2018-07-15T03:31:56.436Z,17.74
2018-07-15T03:32:36.866Z,17.87
2018-07-15T03:33:17.303Z,17.83
2018-07-15T03:33:57.703Z,17.81
2018-07-15T03:34:38.133Z,17.74
2018-07-15T03:35:18.533Z,17.7
2018-07-15T03:35:58.965Z,17.71
2018-07-15T03:36:39.384Z,17.7
2018-07-15T03:37:19.801Z,17.73
2018-07-15T03:38:00.198Z,17.71
2018-07-15T03:38:40.606Z,17.71
2018-07-15T03:39:21.045Z,17.71
2018-07-15T03:40:01.463Z,17.6
2018-07-15T03:40:41.866Z,17.74
2018-07-15T03:41:22.253Z,17.7
2018-07-15T03:42:02.681Z,17.76
2018-07-15T03:43:53.246Z,17.57
2018-07-15T03:44:33.809Z,17.63
2018-07-15T03:45:14.267Z,17.54
2018-07-15T03:45:54.617Z,17.55
2018-07-15T03:46:35.022Z,17.6
2018-07-15T03:47:15.418Z,17.54
2018-07-15T03:47:55.802Z,17.65
2018-07-15T03:48:36.223Z,17.51
2018-07-15T03:49:16.619Z,17.6
2018-07-15T03:49:57.018Z,17.57
2018-07-15T03:50:37.400Z,17.57
2018-07-15T03:52:31.003Z,17.51
2018-07-15T03:53:12.754Z,17.66
2018-07-15T03:53:53.125Z,17.68
2018-07-15T03:54:33.530Z,17.65
2018-07-15T03:55:13.921Z,17.51
2018-07-15T03:55:54.847Z,17.57
2018-07-15T03:56:35.205Z,17.54
2018-07-15T03:57:15.706Z,17.53
2018-07-15T03:57:56.128Z,17.51
2018-07-15T03:58:36.516Z,17.54
2018-07-15T03:59:16.939Z,17.57
2018-07-15T03:59:57.286Z,17.49
2018-07-15T04:00:37.745Z,17.46
2018-07-15T04:01:18.135Z,17.51
2018-07-15T04:01:58.484Z,17.54
2018-07-15T04:02:38.996Z,17.51
2018-07-15T04:03:19.339Z,17.53
2018-07-15T04:03:59.714Z,17.51
2018-07-15T04:44:18.718Z,19.94
2018-07-15T04:44:59.115Z,20.01
2018-07-15T04:45:39.644Z,20.07
2018-07-15T04:46:20.005Z,20.2
2018-07-15T04:47:00.417Z,20.34
2018-07-15T04:47:40.840Z,20.37
2018-07-15T04:48:21.259Z,20.51
2018-07-15T04:49:01.644Z,20.58
2018-07-15T04:49:42.051Z,20.64
2018-07-15T04:50:22.495Z,20.83
2018-07-15T04:51:02.880Z,20.97
2018-07-15T04:51:43.309Z,21.05
2018-07-15T04:52:23.776Z,21.27
2018-07-15T04:53:04.196Z,21.3
2018-07-15T04:53:45.122Z,21.45
2018-07-15T04:54:26.923Z,21.56
2018-07-15T04:55:07.158Z,21.68
2018-07-15T04:55:49.870Z,21.91
2018-07-15T04:56:34.480Z,22.02
2018-07-15T04:58:41.166Z,22.33
2018-07-15T04:59:21.599Z,22.46
2018-07-15T05:00:01.992Z,22.6
2018-07-15T05:00:42.402Z,22.78
2018-07-15T05:01:22.864Z,22.85
2018-07-15T05:02:03.277Z,23.06
2018-07-15T05:02:43.626Z,23.11
2018-07-15T05:03:24.083Z,23.26
2018-07-15T05:04:04.438Z,23.57
2018-07-15T05:04:44.849Z,23.69
2018-07-15T05:05:25.256Z,23.78
2018-07-15T05:06:05.640Z,23.9
2018-07-15T05:06:46.147Z,24.02
2018-07-15T05:08:59.439Z,24.46
2018-07-15T05:09:39.379Z,24.56
2018-07-15T05:10:19.784Z,24.75
2018-07-15T05:11:00.169Z,24.87
2018-07-15T05:11:40.561Z,24.99
2018-07-15T05:13:35.698Z,25.36
2018-07-15T05:14:14.941Z,25.53
2018-07-15T05:14:55.378Z,25.74
2018-07-15T05:15:35.773Z,25.85
2018-07-15T05:16:16.196Z,26.11
2018-07-15T05:16:56.594Z,26.21
2018-07-15T05:17:36.991Z,26.28
2018-07-15T05:18:17.411Z,26.57
2018-07-15T05:18:57.846Z,26.6
2018-07-15T05:19:38.248Z,26.76
2018-07-15T05:20:18.636Z,27.05
2018-07-15T05:20:59.049Z,27.06
2018-07-15T05:21:39.480Z,27.27
2018-07-15T05:22:19.898Z,27.28
2018-07-15T05:23:00.285Z,27.49
2018-07-15T05:23:40.693Z,27.61
2018-07-15T05:24:21.113Z,27.68
2018-07-15T05:25:01.597Z,27.84
2018-07-15T05:25:41.952Z,27.87
2018-07-15T05:26:22.447Z,27.91
2018-07-15T05:27:02.844Z,28.09
2018-07-15T05:27:43.246Z,28.14
2018-07-15T05:28:23.648Z,28.24
2018-07-15T05:29:04.082Z,28.27
2018-07-15T05:29:44.449Z,28.32
2018-07-15T05:40:46.238Z,28.87
2018-07-15T05:41:31.856Z,28.94
2018-07-15T05:45:29.571Z,29.12
2018-07-15T05:49:51.710Z,29.62
2018-07-15T05:50:32.064Z,29.66
2018-07-15T05:51:12.502Z,29.78
2018-07-15T05:51:52.964Z,29.91
2018-07-15T05:52:33.351Z,29.92
2018-07-15T05:53:13.787Z,29.94
2018-07-15T05:53:54.198Z,29.94
2018-07-15T05:54:34.640Z,29.92
2018-07-15T05:55:15.022Z,30.01
2018-07-15T05:55:55.442Z,30.13
2018-07-15T05:56:35.860Z,30.21
2018-07-15T05:57:16.266Z,30.21
2018-07-15T05:57:56.726Z,30.19
2018-07-15T05:58:37.110Z,30.21
2018-07-15T05:59:17.529Z,30.23
2018-07-15T05:59:57.937Z,30.18
2018-07-15T06:01:49.718Z,30.25
2018-07-15T06:02:31.296Z,30.44
2018-07-15T06:03:11.689Z,30.23
2018-07-15T06:03:52.098Z,30.37
2018-07-15T06:04:32.532Z,30.42
2018-07-15T06:05:12.928Z,30.61
2018-07-15T06:05:53.356Z,30.4
2018-07-15T06:06:33.798Z,30.44
2018-07-15T06:07:14.249Z,30.42
2018-07-15T06:07:54.641Z,30.54
2018-07-15T06:08:35.053Z,30.66
2018-07-15T06:09:15.485Z,30.63
2018-07-15T06:09:55.882Z,30.81
2018-07-15T06:10:36.381Z,30.82
2018-07-15T06:11:16.732Z,30.81
2018-07-15T06:11:57.144Z,30.81
2018-07-15T06:12:37.555Z,30.91
2018-07-15T06:13:18.003Z,30.98
2018-07-15T06:13:58.363Z,31.04
2018-07-15T06:14:38.768Z,31.05
2018-07-15T06:15:19.194Z,31.12
2018-07-15T06:16:00.272Z,31.01
2018-07-15T06:17:40.254Z,31.09
2018-07-15T06:18:20.611Z,31.18
2018-07-15T06:19:01.076Z,31.2
2018-07-15T06:19:41.438Z,31.19
2018-07-15T06:20:22.027Z,31.22
2018-07-15T06:21:02.480Z,31.19
2018-07-15T06:21:42.749Z,31.23
2018-07-15T06:22:23.233Z,31.3
2018-07-15T06:23:03.634Z,31.31
2018-07-15T06:23:44.114Z,31.32
2018-07-15T06:24:24.459Z,31.32
2018-07-15T06:26:47.159Z,31.35
2018-07-15T06:27:27.577Z,31.45
2018-07-15T06:28:09.647Z,31.56
2018-07-15T06:28:49.994Z,31.52
2018-07-15T06:29:30.403Z,31.54
2018-07-15T06:30:10.826Z,31.59
2018-07-15T06:30:51.262Z,31.59
2018-07-15T06:31:31.777Z,31.71
2018-07-15T06:32:12.077Z,31.64
2018-07-15T06:32:52.604Z,31.75
2018-07-15T06:35:24.578Z,31.82
2018-07-15T06:36:04.972Z,31.72
2018-07-15T06:36:45.375Z,31.71
2018-07-15T06:37:25.813Z,31.64
2018-07-15T06:38:06.232Z,31.56
2018-07-15T06:38:46.659Z,31.35
2018-07-15T06:39:27.077Z,31.42
2018-07-15T06:40:07.548Z,31.37
2018-07-15T06:40:47.949Z,31.35
2018-07-15T06:41:33.493Z,31.4
2018-07-15T06:42:14.336Z,31.28
2018-07-15T06:42:54.672Z,31.3
2018-07-15T06:43:35.105Z,31.15
2018-07-15T06:44:15.507Z,31.18
2018-07-15T06:44:59.667Z,31.13
2018-07-15T06:45:47.516Z,31.18
2018-07-15T06:46:28.249Z,31.15
2018-07-15T06:47:08.582Z,31.12
2018-07-15T06:47:49.044Z,31.04
2018-07-15T06:48:29.419Z,31.1
2018-07-15T06:49:09.917Z,31.09
2018-07-15T06:49:50.257Z,31.16
2018-07-15T06:50:30.741Z,31.09
2018-07-15T06:51:11.157Z,31.19
2018-07-15T06:51:51.579Z,31.28
2018-07-15T06:52:31.992Z,31.2
2018-07-15T06:53:12.395Z,31.23
2018-07-15T06:53:54.342Z,31.25
2018-07-15T06:54:38.291Z,31.23
2018-07-15T06:56:43.246Z,31.13
2018-07-15T06:57:23.621Z,31.16
2018-07-15T06:58:04.150Z,31
2018-07-15T06:58:44.545Z,31
2018-07-15T06:59:24.972Z,30.88
2018-07-15T07:00:05.389Z,30.94
2018-07-15T07:00:45.816Z,30.86
2018-07-15T07:01:26.322Z,30.67
2018-07-15T07:02:06.685Z,30.66
2018-07-15T07:02:47.225Z,30.67
2018-07-15T07:03:27.988Z,30.56
2018-07-15T07:04:08.448Z,30.38
2018-07-15T07:04:48.880Z,30.29
2018-07-15T07:05:29.859Z,30.38
2018-07-15T07:06:10.403Z,30.37
2018-07-15T07:06:50.798Z,30.3
2018-07-15T07:07:31.190Z,30.34
2018-07-15T07:08:11.566Z,30.46
2018-07-15T07:08:51.967Z,30.45
2018-07-15T07:09:32.418Z,30.49
2018-07-15T07:10:12.797Z,30.46
2018-07-15T07:10:53.206Z,30.34
2018-07-15T07:11:33.667Z,30.29
2018-07-15T07:12:14.097Z,30.32
2018-07-15T07:12:54.539Z,30.28
2018-07-15T07:13:34.953Z,30.4
2018-07-15T07:14:15.453Z,30.32
2018-07-15T07:14:55.818Z,30.3
2018-07-15T07:15:36.217Z,30.34
2018-07-15T07:16:16.636Z,30.3
2018-07-15T07:16:57.056Z,30.36
2018-07-15T07:17:37.447Z,30.37
2018-07-15T07:18:17.886Z,30.59
2018-07-15T07:18:58.305Z,30.51
2018-07-15T07:19:38.789Z,30.61
2018-07-15T07:20:19.173Z,30.63
2018-07-15T07:20:59.599Z,30.7
2018-07-15T07:21:40.139Z,30.78
2018-07-15T07:22:20.522Z,30.76
2018-07-15T07:23:00.872Z,30.7
2018-07-15T07:23:41.305Z,30.81
2018-07-15T07:24:21.744Z,30.88
2018-07-15T07:25:02.185Z,30.96
2018-07-15T07:25:42.559Z,30.97
2018-07-15T07:26:22.991Z,30.86
2018-07-15T07:27:03.397Z,30.86
2018-07-15T07:27:43.878Z,30.79
2018-07-15T07:28:24.232Z,30.81
2018-07-15T07:29:04.636Z,30.78
2018-07-15T07:29:45.070Z,30.81
2018-07-15T07:30:25.685Z,30.73
2018-07-15T07:31:05.910Z,30.75
2018-07-15T07:31:46.314Z,30.75
2018-07-15T07:32:26.800Z,30.81
2018-07-15T07:33:07.178Z,30.73
2018-07-15T07:33:47.601Z,30.81
2018-07-15T07:34:28.028Z,30.78
2018-07-15T07:35:08.466Z,30.88
2018-07-15T07:35:48.968Z,30.91
2018-07-15T07:36:29.390Z,31.05
2018-07-15T07:37:09.751Z,31.05
2018-07-15T07:37:50.166Z,31.13
2018-07-15T07:38:30.597Z,31.18
2018-07-15T07:39:11.028Z,31.22
2018-07-15T07:39:51.440Z,31.37
2018-07-15T07:40:31.870Z,31.38
2018-07-15T07:41:12.327Z,31.46
2018-07-15T07:41:52.710Z,31.5
2018-07-15T07:42:33.153Z,31.46
2018-07-15T07:43:13.558Z,31.5
2018-07-15T07:44:38.889Z,31.57
2018-07-15T07:45:19.367Z,31.59
2018-07-15T07:45:59.800Z,31.78
2018-07-15T07:46:40.238Z,31.75
2018-07-15T07:47:20.655Z,31.88
2018-07-15T07:48:01.022Z,31.87
2018-07-15T07:48:41.505Z,31.99
2018-07-15T07:49:21.904Z,32.1
2018-07-15T07:50:02.334Z,32.16
2018-07-15T07:50:42.909Z,32.31
2018-07-15T07:51:24.013Z,32.41
2018-07-15T07:52:04.449Z,32.4
2018-07-15T07:52:44.904Z,32.39
2018-07-15T07:53:25.347Z,32.35
2018-07-15T07:54:05.724Z,32.31
2018-07-15T07:54:46.164Z,32.24
2018-07-15T07:55:26.591Z,32.35
2018-07-15T07:56:07.033Z,32.29
2018-07-15T07:56:47.446Z,32.34
2018-07-15T07:57:27.858Z,32.41
2018-07-15T07:58:08.314Z,32.47
2018-07-15T07:58:48.664Z,32.5
2018-07-15T07:59:29.126Z,32.56
2018-07-15T08:00:09.531Z,32.56
2018-07-15T08:00:49.938Z,32.51
2018-07-15T08:01:30.373Z,32.49
2018-07-15T08:02:10.794Z,32.54
2018-07-15T08:02:51.211Z,32.53
2018-07-15T08:03:31.679Z,32.62
2018-07-15T08:05:20.826Z,32.81
2018-07-15T08:06:00.756Z,32.98
2018-07-15T08:06:41.197Z,33.12
2018-07-15T08:07:21.616Z,33.18
2018-07-15T08:08:02.093Z,33.14
2018-07-15T08:08:42.440Z,33.24
2018-07-15T08:09:22.893Z,33.37
2018-07-15T08:10:03.288Z,33.5
2018-07-15T08:10:43.709Z,33.57
2018-07-15T08:11:24.206Z,33.72
2018-07-15T08:13:36.924Z,33.99
2018-07-15T08:14:17.203Z,34.08
2018-07-15T08:14:57.903Z,34.11
2018-07-15T08:15:38.275Z,34.06
2018-07-15T08:16:18.795Z,34.06
2018-07-15T08:16:59.191Z,34.23
2018-07-15T08:17:39.567Z,34.14
2018-07-15T08:18:20.018Z,34.14
2018-07-15T08:19:00.394Z,34.18
2018-07-15T08:19:40.828Z,34.09
2018-07-15T08:20:21.296Z,34.03
2018-07-15T08:21:01.719Z,34.05
2018-07-15T08:21:42.204Z,34.08
2018-07-15T08:22:22.581Z,34.14
2018-07-15T08:23:03.049Z,34.16
2018-07-15T08:23:43.444Z,34.15
2018-07-15T08:24:23.909Z,34.21
2018-07-15T08:25:04.292Z,34.18
2018-07-15T08:25:44.709Z,34.12
2018-07-15T08:26:25.146Z,34.09
2018-07-15T08:27:05.555Z,34.11
2018-07-15T08:27:46.007Z,34.14
2018-07-15T08:28:26.563Z,34.23
2018-07-15T08:29:06.858Z,34.16
2018-07-15T08:29:47.282Z,34.19
2018-07-15T08:30:27.804Z,34.18
2018-07-15T08:31:08.144Z,34.18
2018-07-15T08:31:48.544Z,34.23
2018-07-15T08:32:28.996Z,34.31
2018-07-15T08:33:09.418Z,34.34
2018-07-15T08:33:49.813Z,34.33
2018-07-15T08:34:30.305Z,34.23
2018-07-15T08:35:10.679Z,34.33
2018-07-15T08:35:51.095Z,34.28
2018-07-15T08:36:31.493Z,34.37
2018-07-15T08:37:11.933Z,34.31
2018-07-15T08:37:52.306Z,34.38
2018-07-15T08:38:32.724Z,34.46
2018-07-15T08:39:13.156Z,34.65
2018-07-15T08:39:53.590Z,34.73
2018-07-15T08:40:33.991Z,34.95
2018-07-15T08:41:14.415Z,34.99
2018-07-15T08:41:54.854Z,35.12
2018-07-15T08:42:35.256Z,35.21
2018-07-15T08:43:15.671Z,35.27
2018-07-15T08:43:56.044Z,35.31
2018-07-15T08:44:36.458Z,35.44
2018-07-15T08:45:16.888Z,35.46
2018-07-15T08:45:57.393Z,35.56
2018-07-15T08:46:37.989Z,35.62
2018-07-15T08:47:18.249Z,35.62
2018-07-15T08:47:58.716Z,35.69
2018-07-15T08:48:39.096Z,35.65
2018-07-15T08:49:19.532Z,35.66
2018-07-15T08:49:59.934Z,35.68
2018-07-15T08:50:40.378Z,35.89
2018-07-15T08:51:20.791Z,36
2018-07-15T08:52:01.215Z,36.16
2018-07-15T08:52:41.642Z,36.28
2018-07-15T08:53:22.135Z,36.34
2018-07-15T08:54:02.577Z,36.43
2018-07-15T08:54:43.100Z,36.6
2018-07-15T08:55:23.442Z,36.56
2018-07-15T08:56:03.848Z,36.67
2018-07-15T08:56:44.267Z,36.68
2018-07-15T08:57:27.727Z,36.77
2018-07-15T08:58:07.986Z,36.91
2018-07-15T08:59:00.423Z,36.91
2018-07-15T08:59:40.948Z,36.94
2018-07-15T09:00:21.332Z,36.82
2018-07-15T09:01:01.762Z,36.78
2018-07-15T09:01:42.154Z,36.69
2018-07-15T09:02:22.870Z,36.64
2018-07-15T09:03:03.212Z,36.59
2018-07-15T09:03:43.715Z,36.62
2018-07-15T09:04:26.976Z,36.55
2018-07-15T09:05:07.464Z,36.46
2018-07-15T09:05:47.804Z,36.3
2018-07-15T09:06:28.235Z,36.31
2018-07-15T09:07:08.653Z,36.21
2018-07-15T09:07:49.083Z,36.25
2018-07-15T09:08:29.565Z,36.19
2018-07-15T09:09:09.967Z,36.33
2018-07-15T09:11:05.365Z,36.35
2018-07-15T09:11:44.279Z,36.33
2018-07-15T09:13:33.672Z,36.31
2018-07-15T09:14:14.294Z,36.33
2018-07-15T09:14:54.665Z,36.27
2018-07-15T09:15:35.039Z,36.28
2018-07-15T09:16:15.492Z,36.27
2018-07-15T09:16:55.891Z,36.19
2018-07-15T09:17:36.300Z,36.03
2018-07-15T09:18:16.745Z,36.08
2018-07-15T09:18:57.160Z,36.03
2018-07-15T09:19:37.557Z,36
2018-07-15T09:21:15.754Z,35.92
2018-07-15T09:21:55.621Z,35.91
2018-07-15T09:22:35.969Z,35.84
2018-07-15T09:23:16.439Z,35.91
2018-07-15T09:23:57.056Z,35.78
2018-07-15T09:24:37.470Z,35.89
2018-07-15T09:25:17.915Z,35.95
2018-07-15T09:25:58.350Z,36.08
2018-07-15T09:26:38.768Z,36.16
2018-07-15T09:27:19.207Z,36.15
2018-07-15T09:27:59.702Z,36.21
2018-07-15T09:28:40.393Z,36.16
2018-07-15T09:29:20.856Z,36.13
2018-07-15T09:30:01.271Z,36.08
2018-07-15T09:30:41.647Z,36.19
2018-07-15T09:31:22.055Z,36.22
2018-07-15T09:32:02.464Z,36.4
2018-07-15T09:32:42.896Z,36.52
2018-07-15T09:33:23.360Z,36.65
2018-07-15T09:34:03.927Z,36.62
2018-07-15T09:34:44.308Z,36.65
2018-07-15T09:35:24.819Z,36.59
2018-07-15T09:36:05.178Z,36.65
2018-07-15T09:36:45.603Z,36.6
2018-07-15T09:37:26.013Z,36.57
2018-07-15T09:38:06.862Z,36.55
2018-07-15T09:38:47.008Z,36.59
2018-07-15T09:39:27.436Z,36.52
2018-07-15T09:40:07.846Z,36.49
2018-07-15T09:40:48.327Z,36.57
2018-07-15T09:41:28.705Z,36.52
2018-07-15T09:42:11.826Z,36.43
2018-07-15T09:42:56.576Z,36.34
2018-07-15T09:43:37.002Z,36.37
2018-07-15T09:44:17.457Z,36.33
2018-07-15T09:44:57.903Z,36.27
2018-07-15T09:45:38.253Z,36.25
2018-07-15T09:46:18.689Z,36.38
2018-07-15T09:46:59.100Z,36.43
2018-07-15T09:47:39.525Z,36.43
2018-07-15T09:48:19.895Z,36.59
2018-07-15T09:49:00.305Z,36.71
2018-07-15T09:50:01.427Z,36.78
2018-07-15T09:50:42.376Z,36.83
2018-07-15T09:51:22.786Z,36.89
2018-07-15T09:52:03.218Z,36.99
2018-07-15T09:52:43.657Z,36.91
2018-07-15T09:53:24.113Z,37.05
2018-07-15T09:54:04.598Z,37.2
2018-07-15T09:54:44.933Z,37.47
2018-07-15T09:55:25.311Z,37.45
2018-07-15T09:57:51.495Z,37.63
2018-07-15T09:58:30.991Z,37.56
2018-07-15T09:59:11.417Z,37.63
2018-07-15T09:59:51.733Z,37.63
2018-07-15T10:00:32.591Z,37.53
2018-07-15T10:01:12.929Z,37.43
2018-07-15T10:03:05.561Z,37.4
2018-07-15T10:03:48.607Z,37.43
2018-07-15T10:04:27.513Z,37.46
2018-07-15T10:05:07.924Z,37.24
2018-07-15T10:42:52.174Z,36.13
2018-07-15T10:43:31.894Z,36.22
2018-07-15T10:44:12.575Z,36.41
2018-07-15T10:44:52.903Z,36.62
2018-07-15T10:45:33.335Z,36.69
2018-07-15T10:46:13.745Z,36.75
2018-07-15T10:47:09.028Z,36.57
2018-07-15T10:47:49.441Z,36.69
2018-07-15T10:48:29.921Z,36.74
2018-07-15T10:49:10.803Z,36.68
2018-07-15T10:49:51.221Z,36.64
2018-07-15T10:50:31.681Z,36.53
2018-07-15T10:51:12.692Z,36.55
2018-07-15T10:51:53.120Z,36.5
2018-07-15T10:52:33.542Z,36.44
2018-07-15T10:53:13.976Z,36.44
2018-07-15T10:53:54.430Z,36.44
2018-07-15T10:54:34.892Z,36.27
2018-07-15T10:55:15.348Z,36.19
2018-07-15T10:55:55.877Z,36.19
2018-07-15T10:56:36.252Z,35.91
2018-07-15T10:57:18.103Z,35.71
2018-07-15T10:57:58.511Z,35.58
2018-07-15T10:58:39.612Z,35.21
2018-07-15T10:59:20.041Z,35.1
2018-07-15T11:00:00.449Z,35.09
2018-07-15T11:00:41.015Z,35.21
2018-07-15T11:01:22.580Z,35.25
2018-07-15T11:02:02.965Z,35.37
2018-07-15T11:02:43.374Z,35.43
2018-07-15T11:03:23.800Z,35.49
2018-07-15T11:04:04.215Z,35.62
2018-07-15T11:04:44.625Z,35.59